createdAt,value
2022-08-12T00:00:08.761Z,21.10
2022-08-12T00:02:54.762Z,21.00
2022-08-12T00:06:00.460Z,20.90
2022-08-12T00:08:48.803Z,20.90
2022-08-12T00:11:34.380Z,20.80
2022-08-12T00:14:19.618Z,20.70
2022-08-12T00:17:06.281Z,20.60
2022-08-12T00:19:51.962Z,20.50
2022-08-12T00:22:38.868Z,20.40
2022-08-12T00:25:55.794Z,20.40
2022-08-12T00:28:31.041Z,20.30
2022-08-12T00:31:16.654Z,20.30
2022-08-12T00:34:02.454Z,20.20
2022-08-12T00:36:50.256Z,20.20
2022-08-12T00:39:36.291Z,20.20
2022-08-12T00:42:13.111Z,20.20
2022-08-12T00:44:42.415Z,20.10
2022-08-12T00:47:11.646Z,20.10
2022-08-12T00:49:55.094Z,20.00
2022-08-12T00:52:23.361Z,19.90
2022-08-12T00:54:51.648Z,19.80
2022-08-12T00:57:24.084Z,19.80
2022-08-12T01:00:10.385Z,19.70
2022-08-12T01:02:42.725Z,19.60
2022-08-12T01:05:31.888Z,19.60
2022-08-12T01:08:18.125Z,19.50
2022-08-12T01:11:05.580Z,19.50
2022-08-12T01:13:36.130Z,19.40
2022-08-12T01:16:07.537Z,19.30
2022-08-12T01:18:36.988Z,19.20
2022-08-12T01:21:12.159Z,19.20
2022-08-12T01:24:00.999Z,19.10
2022-08-12T01:26:49.088Z,19.00
2022-08-12T01:29:23.226Z,19.10
2022-08-12T01:31:51.849Z,19.00
2022-08-12T01:34:35.704Z,19.00
2022-08-12T01:37:04.883Z,19.00
2022-08-12T01:40:31.720Z,19.00
2022-08-12T01:42:50.574Z,19.00
2022-08-12T01:45:24.583Z,18.90
2022-08-12T01:48:29.982Z,19.00
2022-08-12T01:52:15.373Z,18.90
2022-08-12T01:54:12.530Z,19.00
2022-08-12T01:56:51.693Z,18.90
2022-08-12T01:59:53.395Z,18.90
2022-08-12T02:02:32.289Z,18.90
2022-08-12T02:05:26.511Z,18.80
2022-08-12T02:08:26.680Z,18.80
2022-08-12T02:11:19.120Z,18.80
2022-08-12T02:13:56.784Z,18.70
2022-08-12T02:16:41.656Z,18.70
2022-08-12T02:19:38.334Z,18.70
2022-08-12T02:22:31.268Z,18.70
2022-08-12T02:25:13.144Z,18.60
2022-08-12T02:27:47.789Z,18.60
2022-08-12T02:30:19.418Z,18.60
2022-08-12T02:32:48.238Z,18.50
2022-08-12T02:35:21.230Z,18.50
2022-08-12T02:37:52.810Z,18.50
2022-08-12T02:40:21.531Z,18.50
2022-08-12T02:42:54.248Z,18.40
2022-08-12T02:45:40.142Z,18.40
2022-08-12T02:48:09.298Z,18.50
2022-08-12T02:50:42.122Z,18.50
2022-08-12T02:53:10.494Z,18.50
2022-08-12T02:55:37.492Z,18.50
2022-08-12T02:58:12.597Z,18.50
2022-08-12T03:00:42.301Z,18.50
2022-08-12T03:03:12.633Z,18.50
2022-08-12T03:05:54.432Z,18.50
2022-08-12T03:08:32.662Z,18.50
2022-08-12T03:11:14.587Z,18.50
2022-08-12T03:13:47.340Z,18.50
2022-08-12T03:16:14.810Z,18.50
2022-08-12T03:18:46.169Z,18.50
2022-08-12T03:21:16.891Z,18.50
2022-08-12T03:23:46.024Z,18.50
2022-08-12T03:26:14.717Z,18.50
2022-08-12T03:28:51.368Z,18.50
2022-08-12T03:31:22.819Z,18.50
2022-08-12T03:34:01.844Z,18.50
2022-08-12T03:36:36.437Z,18.50
2022-08-12T03:39:35.442Z,18.50
2022-08-12T03:42:25.324Z,18.50
2022-08-12T03:45:52.558Z,18.40
2022-08-12T03:48:39.495Z,18.40
2022-08-12T03:51:26.351Z,18.40
2022-08-12T03:54:12.104Z,18.40
2022-08-12T03:56:58.063Z,18.30
2022-08-12T03:59:43.548Z,18.30
2022-08-12T04:02:17.331Z,18.30
2022-08-12T04:04:45.758Z,18.30
2022-08-12T04:07:13.837Z,18.20
2022-08-12T04:09:43.674Z,18.20
2022-08-12T04:12:32.748Z,18.20
2022-08-12T04:15:00.769Z,18.30
2022-08-12T04:17:28.260Z,18.20
2022-08-12T04:19:56.887Z,18.20
2022-08-12T04:22:26.413Z,18.30
2022-08-12T04:24:54.451Z,18.30
2022-08-12T04:27:21.347Z,18.30
2022-08-12T04:30:30.212Z,18.30
2022-08-12T04:32:37.693Z,18.30
2022-08-12T04:35:08.124Z,18.30
2022-08-12T04:37:58.363Z,18.40
2022-08-12T04:40:28.170Z,18.30
2022-08-12T04:42:56.107Z,18.30
2022-08-12T04:45:23.052Z,18.30
2022-08-12T04:47:49.897Z,18.30
2022-08-12T04:50:35.202Z,18.30
2022-08-12T04:53:05.741Z,18.30
2022-08-12T04:55:34.510Z,18.40
2022-08-12T04:58:01.594Z,18.40
2022-08-12T05:00:28.543Z,18.50
2022-08-12T05:02:55.659Z,18.50
2022-08-12T05:05:25.485Z,18.60
2022-08-12T05:07:54.569Z,18.60
2022-08-12T05:10:33.758Z,18.70
2022-08-12T05:13:07.574Z,18.80
2022-08-12T05:15:37.853Z,18.80
2022-08-12T05:18:24.642Z,19.00
2022-08-12T05:20:51.963Z,19.10
2022-08-12T05:23:21.206Z,19.10
2022-08-12T05:25:51.424Z,19.20
2022-08-12T05:28:18.515Z,19.30
2022-08-12T05:30:46.196Z,19.40
2022-08-12T05:33:13.669Z,19.50
2022-08-12T05:35:43.379Z,19.50
2022-08-12T05:38:33.494Z,19.70
2022-08-12T05:41:01.763Z,19.80
2022-08-12T05:43:29.047Z,20.00
2022-08-12T05:45:59.407Z,20.00
2022-08-12T05:48:26.674Z,20.10
2022-08-12T05:50:53.560Z,20.20
2022-08-12T05:53:20.553Z,20.40
2022-08-12T05:55:47.363Z,20.50
2022-08-12T05:58:14.067Z,20.60
2022-08-12T06:00:42.454Z,20.70
2022-08-12T06:03:09.470Z,20.80
2022-08-12T06:05:54.260Z,20.90
2022-08-12T06:08:23.745Z,21.00
2022-08-12T06:10:51.125Z,21.10
2022-08-12T06:13:28.734Z,21.20
2022-08-12T06:16:09.810Z,21.20
2022-08-12T06:18:40.007Z,21.40
2022-08-12T06:21:12.330Z,21.50
2022-08-12T06:23:42.727Z,21.60
2022-08-12T06:26:12.755Z,21.70
2022-08-12T06:28:40.795Z,21.80
2022-08-12T06:31:25.171Z,21.90
2022-08-12T06:33:55.272Z,22.10
2022-08-12T06:36:29.958Z,22.20
2022-08-12T06:38:59.664Z,22.40
2022-08-12T06:42:05.096Z,22.60
2022-08-12T06:44:32.171Z,22.80
2022-08-12T06:46:59.165Z,23.10
2022-08-12T06:49:27.618Z,23.20
2022-08-12T06:51:57.099Z,23.40
2022-08-12T06:54:31.851Z,23.40
2022-08-12T06:57:04.186Z,23.50
2022-08-12T06:59:32.286Z,23.70
2022-08-12T07:01:59.221Z,23.80
2022-08-12T07:04:41.515Z,23.90
2022-08-12T07:07:09.543Z,24.10
2022-08-12T07:10:04.538Z,24.10
2022-08-12T07:12:28.367Z,24.20
2022-08-12T07:14:59.492Z,24.50
2022-08-12T07:17:35.455Z,24.60
2022-08-12T07:20:09.887Z,24.70
2022-08-12T07:22:37.498Z,24.80
2022-08-12T07:25:22.816Z,24.90
2022-08-12T07:27:54.339Z,25.10
2022-08-12T07:30:23.112Z,25.20
2022-08-12T07:32:51.397Z,25.30
2022-08-12T07:35:19.392Z,25.40
2022-08-12T07:37:47.238Z,25.60
2022-08-12T07:40:15.446Z,25.60
2022-08-12T07:42:44.046Z,25.70
2022-08-12T07:45:12.371Z,25.90
2022-08-12T07:47:43.624Z,25.90
2022-08-12T07:50:13.359Z,26.00
2022-08-12T07:52:43.017Z,26.20
2022-08-12T07:55:11.797Z,26.20
2022-08-12T07:57:50.401Z,26.40
2022-08-12T08:00:18.216Z,26.40
2022-08-12T08:02:45.056Z,26.60
2022-08-12T08:05:12.489Z,26.80
2022-08-12T08:07:39.280Z,26.80
2022-08-12T08:10:10.830Z,26.90
2022-08-12T08:12:58.580Z,26.90
2022-08-12T08:15:51.207Z,27.00
2022-08-12T08:18:26.790Z,27.10
2022-08-12T08:20:56.595Z,27.30
2022-08-12T08:23:34.922Z,27.50
2022-08-12T08:26:02.075Z,27.80
2022-08-12T08:28:29.270Z,28.30
2022-08-12T08:30:55.982Z,28.80
2022-08-12T08:34:04.812Z,29.40
2022-08-12T08:36:16.484Z,29.90
2022-08-12T08:38:57.801Z,30.30
2022-08-12T08:42:16.660Z,30.60
2022-08-12T08:44:39.402Z,31.10
2022-08-12T08:47:08.291Z,31.40
2022-08-12T08:49:38.161Z,31.50
2022-08-12T08:52:09.733Z,32.00
2022-08-12T08:54:37.769Z,32.60
2022-08-12T08:57:08.214Z,33.30
2022-08-12T08:59:35.231Z,33.40
2022-08-12T09:02:02.617Z,33.30
2022-08-12T09:05:12.753Z,33.20
2022-08-12T09:07:58.712Z,33.10
2022-08-12T09:10:15.464Z,33.50
2022-08-12T09:13:23.377Z,33.60
2022-08-12T09:15:57.760Z,33.60
2022-08-12T09:18:33.118Z,33.40
2022-08-12T09:21:02.021Z,33.40
2022-08-12T09:23:59.871Z,33.40
2022-08-12T09:26:18.882Z,33.20
2022-08-12T09:32:07.314Z,33.10
2022-08-12T09:34:29.146Z,33.90
2022-08-12T09:37:02.905Z,34.00
2022-08-12T09:40:02.175Z,34.10
2022-08-12T09:46:19.336Z,34.50
2022-08-12T09:48:35.125Z,35.30
2022-08-12T09:51:04.746Z,35.00
2022-08-12T09:53:45.617Z,34.80
2022-08-12T09:56:57.995Z,35.20
2022-08-12T09:59:07.974Z,35.30
2022-08-12T10:02:42.864Z,35.60
2022-08-12T10:04:28.020Z,35.50
2022-08-12T10:06:57.961Z,35.20
2022-08-12T10:09:56.925Z,35.70
2022-08-12T10:12:33.370Z,35.50
2022-08-12T10:15:01.974Z,36.10
2022-08-12T10:17:29.312Z,36.30
2022-08-12T10:20:05.371Z,36.40
2022-08-12T10:22:40.788Z,35.90
2022-08-12T10:26:18.961Z,36.20
2022-08-12T10:28:39.401Z,35.30
2022-08-12T10:31:16.501Z,35.20
2022-08-12T10:33:55.549Z,35.80
2022-08-12T10:36:40.444Z,36.20
2022-08-12T10:40:00.833Z,37.00
2022-08-12T10:42:29.888Z,37.00
2022-08-12T10:45:09.052Z,36.60
2022-08-12T10:48:19.134Z,37.00
2022-08-12T10:51:00.975Z,37.10
2022-08-12T10:53:20.225Z,36.60
2022-08-12T10:56:08.062Z,37.10
2022-08-12T10:58:36.609Z,37.00
2022-08-12T11:01:49.331Z,37.80
2022-08-12T11:04:22.850Z,38.30
2022-08-12T11:07:07.995Z,37.80
2022-08-12T11:09:55.670Z,37.50
2022-08-12T11:12:54.986Z,37.80
2022-08-12T11:15:18.514Z,37.80
2022-08-12T11:17:53.866Z,37.60
2022-08-12T11:20:24.332Z,38.10
2022-08-12T11:23:25.669Z,38.30
2022-08-12T11:25:57.555Z,38.60
2022-08-12T11:28:33.573Z,38.20
2022-08-12T11:31:02.635Z,38.50
2022-08-12T11:34:04.407Z,38.10
2022-08-12T11:36:16.982Z,37.70
2022-08-12T11:38:50.562Z,37.80
2022-08-12T11:41:31.668Z,38.30
2022-08-12T11:44:01.985Z,39.10
2022-08-12T11:46:51.414Z,39.00
2022-08-12T11:49:31.305Z,38.40
2022-08-12T11:52:03.888Z,38.50
2022-08-12T11:54:31.460Z,39.00
2022-08-12T11:57:00.569Z,39.00
2022-08-12T12:02:20.567Z,40.00
2022-08-12T12:04:52.461Z,40.20
2022-08-12T12:08:36.391Z,39.60
2022-08-12T12:10:11.789Z,39.80
2022-08-12T12:12:38.704Z,39.40
2022-08-12T12:15:09.523Z,39.40
2022-08-12T12:17:38.753Z,39.00
2022-08-12T12:20:11.488Z,39.50
2022-08-12T12:22:41.795Z,39.80
2022-08-12T12:25:13.761Z,39.90
2022-08-12T12:28:05.252Z,40.40
2022-08-12T12:30:35.324Z,40.30
2022-08-12T12:33:03.886Z,41.50
2022-08-12T12:36:06.078Z,41.50
2022-08-12T12:38:19.968Z,41.30
2022-08-12T12:40:50.217Z,40.70
2022-08-12T12:43:28.628Z,40.30
2022-08-12T12:46:05.647Z,39.90
2022-08-12T12:48:35.431Z,40.60
2022-08-12T12:51:48.334Z,40.70
2022-08-12T12:54:14.173Z,40.40
2022-08-12T12:56:58.272Z,40.40
2022-08-12T12:59:54.996Z,41.50
2022-08-12T13:02:31.837Z,42.00
2022-08-12T13:05:00.183Z,41.70
2022-08-12T13:07:49.425Z,40.20
2022-08-12T13:10:20.161Z,39.80
2022-08-12T13:12:52.779Z,39.40
2022-08-12T13:15:43.618Z,40.00
2022-08-12T13:18:16.505Z,40.30
2022-08-12T13:20:47.276Z,40.50
2022-08-12T13:23:36.057Z,41.20
2022-08-12T13:26:29.742Z,40.90
2022-08-12T13:28:58.588Z,41.70
2022-08-12T13:31:35.655Z,42.60
2022-08-12T13:34:31.812Z,42.00
2022-08-12T13:37:12.236Z,41.80
2022-08-12T13:39:53.608Z,41.60
2022-08-12T13:42:26.157Z,41.20
2022-08-12T13:44:54.833Z,41.20
2022-08-12T13:47:22.637Z,41.90
2022-08-12T13:49:54.832Z,42.60
2022-08-12T13:52:25.826Z,43.40
2022-08-12T13:54:56.105Z,43.60
2022-08-12T13:57:44.547Z,43.10
2022-08-12T14:00:20.431Z,42.30
2022-08-12T14:03:03.505Z,41.80
2022-08-12T14:05:39.093Z,41.30
2022-08-12T14:08:10.906Z,40.80
2022-08-12T14:10:51.480Z,40.30
2022-08-12T14:14:02.767Z,40.80
2022-08-12T14:16:37.835Z,41.50
2022-08-12T14:19:10.436Z,42.20
2022-08-12T14:22:19.991Z,42.00
2022-08-12T14:24:48.817Z,42.10
2022-08-12T14:28:02.714Z,41.40
2022-08-12T14:30:17.207Z,41.70
2022-08-12T14:32:51.408Z,42.50
2022-08-12T14:35:20.034Z,40.80
2022-08-12T14:37:57.016Z,39.10
2022-08-12T14:40:30.103Z,37.40
2022-08-12T14:42:59.658Z,36.70
2022-08-12T14:45:45.401Z,35.90
2022-08-12T14:48:24.284Z,35.50
2022-08-12T14:52:16.091Z,36.70
2022-08-12T14:59:57.517Z,39.60
2022-08-12T15:02:22.733Z,39.90
2022-08-12T15:04:56.025Z,39.90
2022-08-12T15:07:34.370Z,39.00
2022-08-12T15:10:12.709Z,38.10
2022-08-12T15:12:43.093Z,38.10
2022-08-12T15:15:11.255Z,37.90
2022-08-12T15:17:39.182Z,36.70
2022-08-12T15:20:30.990Z,35.80
2022-08-12T15:22:57.887Z,36.60
2022-08-12T15:25:27.042Z,38.20
2022-08-12T15:28:20.388Z,39.50
2022-08-12T15:30:42.272Z,40.20
2022-08-12T15:33:12.927Z,39.90
2022-08-12T15:35:52.939Z,39.90
2022-08-12T15:38:25.171Z,40.10
2022-08-12T15:40:54.119Z,39.90
2022-08-12T15:44:16.947Z,39.10
2022-08-12T15:46:15.110Z,37.80
2022-08-12T15:48:50.184Z,36.20
2022-08-12T15:51:58.507Z,36.00
2022-08-12T15:54:33.641Z,36.90
2022-08-12T15:57:03.355Z,37.70
2022-08-12T15:59:51.934Z,38.50
2022-08-12T16:02:27.026Z,39.00
2022-08-12T16:04:55.027Z,38.90
2022-08-12T16:07:29.827Z,37.50
2022-08-12T16:10:07.221Z,36.20
2022-08-12T16:12:43.679Z,35.20
2022-08-12T16:15:25.021Z,34.60
2022-08-12T16:18:19.253Z,34.70
2022-08-12T16:20:47.225Z,35.30
2022-08-12T16:23:35.989Z,34.90
2022-08-12T16:26:15.400Z,35.00
2022-08-12T16:28:47.531Z,36.00
2022-08-12T16:31:23.452Z,35.80
2022-08-12T16:33:56.422Z,35.40
2022-08-12T16:36:37.265Z,34.90
2022-08-12T16:39:06.210Z,34.20
2022-08-12T16:41:39.443Z,33.60
2022-08-12T16:44:08.859Z,33.20
2022-08-12T16:46:37.788Z,32.70
2022-08-12T16:49:13.041Z,32.40
2022-08-12T16:51:46.685Z,32.20
2022-08-12T16:54:17.075Z,32.20
2022-08-12T16:56:58.458Z,32.10
2022-08-12T16:59:53.508Z,32.10
2022-08-12T17:02:18.019Z,32.10
2022-08-12T17:05:03.436Z,32.00
2022-08-12T17:07:36.579Z,31.70
2022-08-12T17:10:07.092Z,31.60
2022-08-12T17:12:37.719Z,31.50
2022-08-12T17:15:50.455Z,31.60
2022-08-12T17:18:38.889Z,31.50
2022-08-12T17:20:46.426Z,31.60
2022-08-12T17:23:16.459Z,31.50
2022-08-12T17:25:48.347Z,31.60
2022-08-12T17:28:16.782Z,31.60
2022-08-12T17:30:45.813Z,31.80
2022-08-12T17:33:25.570Z,31.80
2022-08-12T17:35:53.469Z,31.80
2022-08-12T17:38:21.243Z,31.80
2022-08-12T17:40:48.558Z,31.70
2022-08-12T17:43:54.720Z,31.60
2022-08-12T17:46:13.160Z,31.50
2022-08-12T17:48:55.011Z,31.30
2022-08-12T17:51:25.544Z,31.20
2022-08-12T17:54:10.667Z,31.00
2022-08-12T17:56:55.219Z,30.80
2022-08-12T17:59:47.769Z,30.60
2022-08-12T18:02:25.529Z,30.40
2022-08-12T18:05:04.948Z,30.30
2022-08-12T18:07:35.693Z,30.10
2022-08-12T18:10:09.365Z,29.90
2022-08-12T18:12:51.001Z,29.70
2022-08-12T18:15:27.042Z,29.60
2022-08-12T18:18:10.446Z,29.50
2022-08-12T18:20:49.157Z,29.40
2022-08-12T18:23:24.224Z,29.30
2022-08-12T18:26:17.625Z,29.10
2022-08-12T18:28:48.236Z,29.00
2022-08-12T18:31:44.432Z,28.90
2022-08-12T18:34:24.211Z,28.70
2022-08-12T18:36:55.579Z,28.50
2022-08-12T18:39:22.821Z,28.40
2022-08-12T18:41:54.451Z,28.30
2022-08-12T18:44:35.153Z,28.20
2022-08-12T18:47:10.606Z,28.00
2022-08-12T18:49:48.971Z,27.90
2022-08-12T18:52:30.974Z,27.70
2022-08-12T18:55:08.164Z,27.50
2022-08-12T18:58:07.204Z,27.40
2022-08-12T19:00:29.107Z,27.30
2022-08-12T19:03:38.913Z,27.10
2022-08-12T19:05:59.746Z,27.00
2022-08-12T19:08:31.014Z,26.80
2022-08-12T19:11:16.837Z,26.70
2022-08-12T19:14:05.125Z,26.50
2022-08-12T19:16:39.939Z,26.40
2022-08-12T19:19:09.776Z,26.20
2022-08-12T19:21:38.533Z,26.00
2022-08-12T19:24:26.283Z,25.90
2022-08-12T19:26:57.338Z,25.80
2022-08-12T19:29:24.943Z,25.70
2022-08-12T19:31:57.406Z,25.60
2022-08-12T19:38:04.332Z,25.40
2022-08-12T19:40:31.649Z,25.20
2022-08-12T19:43:18.897Z,25.10
2022-08-12T19:45:54.468Z,25.00
2022-08-12T19:48:27.667Z,24.90
2022-08-12T19:50:57.877Z,24.80
2022-08-12T19:53:27.777Z,24.70
2022-08-12T19:55:57.301Z,24.50
2022-08-12T19:58:24.903Z,24.50
2022-08-12T20:00:54.148Z,24.40
2022-08-12T20:03:39.281Z,24.30
2022-08-12T20:06:15.709Z,24.20
2022-08-12T20:08:49.395Z,24.10
2022-08-12T20:12:10.016Z,24.00
2022-08-12T20:14:18.034Z,23.80
2022-08-12T20:16:54.415Z,23.80
2022-08-12T20:20:01.157Z,23.70
2022-08-12T20:22:24.792Z,23.50
2022-08-12T20:25:01.260Z,23.50
2022-08-12T20:28:04.962Z,23.40
2022-08-12T20:30:20.202Z,23.40
2022-08-12T20:32:59.210Z,23.30
2022-08-12T20:35:39.105Z,23.10
2022-08-12T20:38:26.749Z,23.00
2022-08-12T20:40:55.652Z,22.90
2022-08-12T20:43:24.006Z,22.70
2022-08-12T20:45:57.946Z,22.60
2022-08-12T20:48:28.689Z,22.50
2022-08-12T20:51:04.311Z,22.40
2022-08-12T20:53:57.869Z,22.30
2022-08-12T20:56:30.809Z,22.30
2022-08-12T20:59:00.926Z,22.10
2022-08-12T21:01:45.986Z,22.00
2022-08-12T21:04:33.733Z,22.00
2022-08-12T21:07:04.660Z,21.90
2022-08-12T21:09:49.550Z,21.80
2022-08-12T21:12:28.109Z,21.70
2022-08-12T21:15:23.305Z,21.60
2022-08-12T21:18:11.149Z,21.60
2022-08-12T21:20:55.268Z,21.40
2022-08-12T21:23:23.258Z,21.40
2022-08-12T21:25:56.461Z,21.40
2022-08-12T21:28:27.644Z,21.40
2022-08-12T21:32:35.505Z,21.30
2022-08-12T21:34:07.099Z,21.20
2022-08-12T21:36:39.960Z,21.20
2022-08-12T21:39:21.091Z,21.20
2022-08-12T21:41:53.744Z,21.10
2022-08-12T21:44:24.494Z,21.10
2022-08-12T21:47:20.366Z,21.10
2022-08-12T21:49:53.810Z,21.10
2022-08-12T21:52:28.268Z,21.10
2022-08-12T21:55:08.316Z,21.00
2022-08-12T21:57:51.249Z,21.00
2022-08-12T22:00:32.303Z,21.00
2022-08-12T22:04:01.627Z,21.00
2022-08-12T22:06:31.686Z,20.90
2022-08-12T22:09:16.299Z,20.90
2022-08-12T22:11:56.311Z,20.90
2022-08-12T22:14:28.005Z,20.90
2022-08-12T22:16:56.649Z,20.80
2022-08-12T22:19:24.484Z,20.90
2022-08-12T22:21:54.537Z,20.80
2022-08-12T22:24:26.298Z,20.80
2022-08-12T22:26:55.733Z,20.70
2022-08-12T22:29:42.578Z,20.70
2022-08-12T22:32:12.122Z,20.70
2022-08-12T22:34:40.003Z,20.60
2022-08-12T22:37:19.928Z,20.60
2022-08-12T22:39:49.022Z,20.50
2022-08-12T22:42:35.776Z,20.50
2022-08-12T22:45:23.023Z,20.40
2022-08-12T22:47:55.846Z,20.30
2022-08-12T22:50:28.847Z,20.20
2022-08-12T22:53:15.080Z,20.10
2022-08-12T22:55:59.020Z,20.10
2022-08-12T22:58:31.959Z,20.00
2022-08-12T23:01:02.580Z,19.90
2022-08-12T23:03:49.298Z,19.80
2022-08-12T23:06:25.711Z,19.80
2022-08-12T23:08:55.633Z,19.80
2022-08-12T23:11:23.906Z,19.70
2022-08-12T23:13:56.328Z,19.70
2022-08-12T23:16:31.522Z,19.70
2022-08-12T23:19:17.779Z,19.70
2022-08-12T23:22:06.661Z,19.60
2022-08-12T23:24:53.882Z,19.60
2022-08-12T23:27:55.972Z,19.70
2022-08-12T23:30:50.498Z,19.70
2022-08-12T23:34:01.799Z,19.70
2022-08-12T23:36:12.625Z,19.70
2022-08-12T23:38:42.248Z,19.60
2022-08-12T23:41:56.457Z,19.70
2022-08-12T23:44:33.617Z,19.60
2022-08-12T23:47:14.078Z,19.50
2022-08-12T23:49:56.346Z,19.50
2022-08-12T23:52:34.419Z,19.40
2022-08-12T23:55:24.750Z,19.40
2022-08-12T23:58:20.677Z,19.30
